Terminal Aerodrome Forecast
Issued by NWS

Home | Current Version | Previous Version | Graphics & Text | Print | Product List | Glossary On
Versions: 1 2 3 4 5 6 7 8 9 10 11 12 13 14 15 16 17 18 19
117
FTUS45 KGGW 042327
TAFSDY
TAF
KSDY 042327Z 0500/0524 27005KT P6SM OVC050
     FM050400 29006KT P6SM OVC015
     FM051200 26009KT P6SM BKN040
     FM051800 27009KT P6SM SCT070
      AMD LTD TO CLD VIS AND WIND=

USA.gov is the U.S. government's official web portal to all federal, state and local government web resources and services.